»·PEaware :: N881PF KGEG-KGEG

N881PF :: KGEG-KGEG

FLIGHT INFORMATION

Flight Status: Arrived
Operator: Privately registered:
United States
More flights under this callsign
Pilot: Northwest Flight Service (22302)
Aircraft: CIRRUS SR-20
(SR20)
More flights by this aircraft type
Origin: KGEG Spokane Intl
United States
Destination: KGEG Spokane Intl
United States
More flights between these airports :: More routes between these airports
Route: +GEG6
File this flight plan on PilotEdge
Remarks:
Altitude:
(Current/Filed)
6,000ft
Speed:
(Current/Filed)
136kts
Departed: 19-Oct-19 02:40 PM
Arrived: 19-Oct-19 03:42 PM
Distance/Time
Traveled:
0nm/1:01
Distance/Time
To Go:
Arrived

Flight Plot

Page will automatically refresh every two minutes.


Map Options




Map Legend


Flown Route
Filed Route
Departure Airport
Arrival Airport
Navaid (VOR, NDB)
Fix

Horizontal Profiles

Position Reports

Time Latitude Longitude Heading Altitude Ground
Speed
19-Oct-19 14:23 47.620588 -117.528243 108 2377ft 0kts
19-Oct-19 14:24 47.620588 -117.528243 108 2377ft 0kts
19-Oct-19 14:25 47.620588 -117.528243 108 2377ft 0kts
19-Oct-19 14:26 47.620588 -117.528243 108 2377ft 0kts
19-Oct-19 14:27 47.620588 -117.528243 108 2377ft 0kts
19-Oct-19 14:28 47.620581 -117.528179 77 2377ft 1kts
19-Oct-19 14:29 47.622030 -117.528717 43 2377ft 11kts
19-Oct-19 14:30 47.624912 -117.524249 43 2377ft 17kts
19-Oct-19 14:31 47.627697 -117.520142 35 2377ft 16kts
19-Oct-19 14:32 47.630206 -117.516970 326 2377ft 0kts
19-Oct-19 14:33 47.630206 -117.516970 326 2377ft 0kts
19-Oct-19 14:34 47.630206 -117.516970 326 2377ft 0kts
19-Oct-19 14:35 47.630206 -117.516970 326 2377ft 0kts
19-Oct-19 14:36 47.630206 -117.516970 326 2377ft 0kts
19-Oct-19 14:37 47.630206 -117.516970 326 2377ft 0kts
19-Oct-19 14:38 47.630206 -117.516970 326 2377ft 0kts
19-Oct-19 14:39 47.627823 -117.523375 237 2377ft 63kts
19-Oct-19 14:40 47.613487 -117.543796 223 2823ft 82kts
19-Oct-19 14:41 47.595998 -117.569504 224 3500ft 88kts
19-Oct-19 14:42 47.575373 -117.597970 224 4042ft 107kts
19-Oct-19 14:43 47.548466 -117.615611 193 4664ft 109kts
19-Oct-19 14:44 47.526450 -117.603449 94 5268ft 102kts
19-Oct-19 14:45 47.524209 -117.561387 93 5857ft 102kts
19-Oct-19 14:46 47.532703 -117.517466 57 6010ft 134kts
19-Oct-19 14:47 47.554373 -117.468115 56 6004ft 149kts
19-Oct-19 14:48 47.574575 -117.413857 65 6003ft 152kts
19-Oct-19 14:49 47.594220 -117.362786 14 6004ft 149kts
19-Oct-19 14:50 47.634556 -117.379762 345 5684ft 158kts
19-Oct-19 14:51 47.674106 -117.394786 347 5597ft 138kts
19-Oct-19 14:52 47.711631 -117.408485 347 5601ft 146kts
19-Oct-19 14:53 47.751544 -117.420763 344 5601ft 150kts
19-Oct-19 14:54 47.792553 -117.430136 358 5597ft 146kts
19-Oct-19 14:55 47.832520 -117.431055 0 5250ft 139kts
19-Oct-19 14:56 47.865573 -117.431573 359 4442ft 114kts
19-Oct-19 14:57 47.896144 -117.431148 0 3666ft 88kts
19-Oct-19 14:58 47.921062 -117.430171 0 2983ft 94kts
19-Oct-19 14:59 47.948775 -117.430557 354 2470ft 109kts
19-Oct-19 15:00 47.978063 -117.431121 359 3107ft 104kts
19-Oct-19 15:01 48.007075 -117.431439 0 3766ft 106kts
19-Oct-19 15:02 48.036334 -117.433804 328 4392ft 109kts
19-Oct-19 15:03 48.060340 -117.429513 57 4983ft 106kts
19-Oct-19 15:04 48.075726 -117.391335 50 5523ft 109kts
19-Oct-19 15:05 48.094818 -117.358428 50 6138ft 105kts
19-Oct-19 15:06 48.100174 -117.322900 150 6523ft 103kts
19-Oct-19 15:07 48.071177 -117.318323 173 6035ft 116kts
19-Oct-19 15:08 48.039825 -117.315954 173 5998ft 118kts
19-Oct-19 15:09 48.003975 -117.312008 174 6001ft 137kts
19-Oct-19 15:10 47.964948 -117.307821 174 6000ft 143kts
19-Oct-19 15:11 47.925237 -117.303534 173 5999ft 144kts
19-Oct-19 15:12 47.885219 -117.299033 173 5999ft 145kts
19-Oct-19 15:13 47.844954 -117.294829 183 5996ft 147kts
19-Oct-19 15:14 47.805795 -117.312072 194 5934ft 152kts
19-Oct-19 15:15 47.765788 -117.328235 183 5794ft 135kts
19-Oct-19 15:16 47.736336 -117.359692 224 5325ft 147kts
19-Oct-19 15:17 47.708215 -117.402138 224 4578ft 127kts
19-Oct-19 15:18 47.687777 -117.432894 225 3997ft 98kts
19-Oct-19 15:19 47.666140 -117.465433 225 3407ft 122kts
19-Oct-19 15:20 47.642248 -117.501473 225 2730ft 121kts
19-Oct-19 15:21 47.619126 -117.534786 224 3234ft 99kts
19-Oct-19 15:22 47.596473 -117.566331 223 3597ft 116kts
19-Oct-19 15:23 47.573673 -117.598988 223 4115ft 114kts
19-Oct-19 15:24 47.550903 -117.632147 224 4568ft 116kts
19-Oct-19 15:25 47.532668 -117.669130 282 5002ft 115kts
19-Oct-19 15:26 47.556661 -117.692205 304 5373ft 116kts
19-Oct-19 15:27 47.573940 -117.732710 302 5771ft 116kts
19-Oct-19 15:28 47.591920 -117.774217 303 6004ft 129kts
19-Oct-19 15:29 47.610870 -117.822756 271 5765ft 149kts
19-Oct-19 15:30 47.588331 -117.869549 212 5285ft 151kts
19-Oct-19 15:31 47.550306 -117.887954 184 4998ft 136kts
19-Oct-19 15:32 47.519568 -117.863481 140 4999ft 126kts
19-Oct-19 15:33 47.496733 -117.825924 122 5000ft 123kts
19-Oct-19 15:34 47.483882 -117.780382 97 5000ft 122kts
19-Oct-19 15:35 47.500466 -117.740099 48 4999ft 121kts
19-Oct-19 15:36 47.522918 -117.702667 47 4897ft 129kts
19-Oct-19 15:37 47.544666 -117.664840 54 4284ft 115kts
19-Oct-19 15:38 47.563774 -117.629037 48 3794ft 101kts
19-Oct-19 15:39 47.580573 -117.600671 43 3496ft 91kts
19-Oct-19 15:40 47.596392 -117.570915 47 3069ft 96kts
19-Oct-19 15:41 47.612868 -117.545718 47 2377ft 6kts
19-Oct-19 15:42 47.613405 -117.541651 46 2377ft 14kts
19-Oct-19 15:43 47.616925 -117.536314 49 2377ft 13kts
19-Oct-19 15:44 47.620152 -117.531466 51 2377ft 9kts
19-Oct-19 15:45 47.620452 -117.528068 93 2377ft 0kts

Navigation Log

Ident Type
Flight plan parsing failed, navigation log unavailable